X  Close Metar Aviation Weather Data     EGHH Bournemouth Airport
Temperature
16°C Temperature
14°C Dewpoint
88% Humidity



Wind
3 KM/H
2 MPH
1 M/S
2 KTS



260°
W
Current Conditions

Partly Cloudy Partly Cloudy
Pressure 1021 (hPa) - 30.15 (inHg)
Visibility 6 (mile) - 9.7 (km)
Airport
Airport-code EGHH

Location: Bournemouth Airport
Distance: 14 (km)

Metar:
EGHH 232120Z 26002KT 9999 FEW025 16/14 Q1021

Time: 23-06-2024 21:20 BST